sensor_id;sensor_type;location;lat;lon;timestamp;pressure;altitude;pressure_sealevel;temperature;humidity
45403;BME280;47427;51.976;5.326;2023-03-31T00:00:03;100256.28;;;10.04;100.00
45403;BME280;47427;51.976;5.326;2023-03-31T00:03:32;100251.91;;;10.05;100.00
45403;BME280;47427;51.976;5.326;2023-03-31T00:06:55;100246.75;;;10.08;100.00
45403;BME280;47427;51.976;5.326;2023-03-31T00:10:17;100244.13;;;10.09;100.00
45403;BME280;47427;51.976;5.326;2023-03-31T00:13:41;100221.41;;;10.08;100.00
45403;BME280;47427;51.976;5.326;2023-03-31T00:17:04;100219.91;;;10.21;100.00
45403;BME280;47427;51.976;5.326;2023-03-31T00:20:26;100223.59;;;10.31;100.00
45403;BME280;47427;51.976;5.326;2023-03-31T00:23:47;100210.63;;;10.40;100.00
45403;BME280;47427;51.976;5.326;2023-03-31T00:27:10;100197.53;;;10.41;100.00
45403;BME280;47427;51.976;5.326;2023-03-31T00:30:32;100191.38;;;10.39;100.00
45403;BME280;47427;51.976;5.326;2023-03-31T00:33:55;100193.22;;;10.44;100.00
45403;BME280;47427;51.976;5.326;2023-03-31T00:37:18;100188.84;;;10.44;100.00
45403;BME280;47427;51.976;5.326;2023-03-31T00:40:46;100183.56;;;10.41;100.00
45403;BME280;47427;51.976;5.326;2023-03-31T00:44:21;100169.72;;;10.51;100.00
45403;BME280;47427;51.976;5.326;2023-03-31T00:51:13;100161.25;;;10.69;100.00
45403;BME280;47427;51.976;5.326;2023-03-31T00:54:37;100143.72;;;10.67;100.00
45403;BME280;47427;51.976;5.326;2023-03-31T00:58:01;100127.69;;;10.47;100.00
45403;BME280;47427;51.976;5.326;2023-03-31T01:01:25;100144.72;;;10.20;100.00
45403;BME280;47427;51.976;5.326;2023-03-31T01:04:57;100141.91;;;10.09;100.00
45403;BME280;47427;51.976;5.326;2023-03-31T01:08:25;100114.59;;;9.93;100.00
45403;BME280;47427;51.976;5.326;2023-03-31T01:11:47;100112.75;;;9.89;100.00
45403;BME280;47427;51.976;5.326;2023-03-31T01:15:11;100109.22;;;9.86;100.00
45403;BME280;47427;51.976;5.326;2023-03-31T01:18:34;100118.16;;;9.98;100.00
45403;BME280;47427;51.976;5.326;2023-03-31T01:41:06;100048.94;;;9.87;100.00
45403;BME280;47427;51.976;5.326;2023-03-31T01:44:38;100041.13;;;9.89;100.00
45403;BME280;47427;51.976;5.326;2023-03-31T01:48:37;100047.38;;;9.97;100.00
45403;BME280;47427;51.976;5.326;2023-03-31T01:52:31;100033.31;;;9.92;100.00
45403;BME280;47427;51.976;5.326;2023-03-31T02:00:10;100011.56;;;9.96;100.00
45403;BME280;47427;51.976;5.326;2023-03-31T02:03:39;100018.72;;;10.09;100.00
45403;BME280;47427;51.976;5.326;2023-03-31T02:07:09;100003.97;;;10.16;100.00
45403;BME280;47427;51.976;5.326;2023-03-31T02:10:34;99977.56;;;10.01;100.00
45403;BME280;47427;51.976;5.326;2023-03-31T02:13:58;99991.59;;;10.07;100.00
45403;BME280;47427;51.976;5.326;2023-03-31T02:17:24;99977.56;;;10.02;100.00
45403;BME280;47427;51.976;5.326;2023-03-31T02:20:53;99959.94;;;9.90;100.00
45403;BME280;47427;51.976;5.326;2023-03-31T02:24:20;99938.03;;;9.87;100.00
45403;BME280;47427;51.976;5.326;2023-03-31T02:28:08;99950.34;;;9.91;100.00
45403;BME280;47427;51.976;5.326;2023-03-31T02:35:20;99932.91;;;9.94;100.00
45403;BME280;47427;51.976;5.326;2023-03-31T02:38:49;99917.97;;;9.89;100.00
45403;BME280;47427;51.976;5.326;2023-03-31T02:42:12;99898.56;;;9.74;100.00
45403;BME280;47427;51.976;5.326;2023-03-31T02:45:45;99889.88;;;9.77;100.00
45403;BME280;47427;51.976;5.326;2023-03-31T02:49:09;99882.84;;;9.74;100.00
45403;BME280;47427;51.976;5.326;2023-03-31T03:01:06;99852.25;;;9.72;100.00
45403;BME280;47427;51.976;5.326;2023-03-31T03:13:25;99815.69;;;9.80;100.00
45403;BME280;47427;51.976;5.326;2023-03-31T03:17:17;99814.84;;;9.81;100.00
45403;BME280;47427;51.976;5.326;2023-03-31T03:20:43;99810.38;;;9.73;100.00
45403;BME280;47427;51.976;5.326;2023-03-31T03:24:09;99807.78;;;9.75;100.00
45403;BME280;47427;51.976;5.326;2023-03-31T03:27:32;99767.41;;;9.59;100.00
45403;BME280;47427;51.976;5.326;2023-03-31T03:30:53;99787.69;;;9.74;100.00
45403;BME280;47427;51.976;5.326;2023-03-31T03:34:16;99770.09;;;9.62;100.00
45403;BME280;47427;51.976;5.326;2023-03-31T03:37:41;99771.91;;;9.68;100.00
45403;BME280;47427;51.976;5.326;2023-03-31T03:41:03;99749.91;;;9.57;100.00
45403;BME280;47427;51.976;5.326;2023-03-31T03:44:26;99758.72;;;9.60;100.00
45403;BME280;47427;51.976;5.326;2023-03-31T03:47:49;99754.25;;;9.53;100.00
45403;BME280;47427;51.976;5.326;2023-03-31T03:51:11;99753.25;;;9.43;100.00
45403;BME280;47427;51.976;5.326;2023-03-31T03:54:33;99723.44;;;9.32;100.00
45403;BME280;47427;51.976;5.326;2023-03-31T03:57:55;99729.59;;;9.36;100.00
45403;BME280;47427;51.976;5.326;2023-03-31T04:01:17;99716.53;;;9.37;100.00
45403;BME280;47427;51.976;5.326;2023-03-31T04:04:40;99699.03;;;9.35;100.00
45403;BME280;47427;51.976;5.326;2023-03-31T04:08:02;99679.72;;;9.25;100.00
45403;BME280;47427;51.976;5.326;2023-03-31T04:11:25;99660.53;;;9.26;100.00
45403;BME280;47427;51.976;5.326;2023-03-31T04:14:49;99662.31;;;9.28;100.00
45403;BME280;47427;51.976;5.326;2023-03-31T04:18:11;99642.31;;;9.33;100.00
45403;BME280;47427;51.976;5.326;2023-03-31T04:21:44;99643.25;;;9.42;100.00
45403;BME280;47427;51.976;5.326;2023-03-31T04:25:10;99625.78;;;9.38;100.00
45403;BME280;47427;51.976;5.326;2023-03-31T04:28:38;99620.66;;;9.48;100.00
45403;BME280;47427;51.976;5.326;2023-03-31T04:32:06;99615.50;;;9.56;100.00
45403;BME280;47427;51.976;5.326;2023-03-31T04:35:30;99619.00;;;9.57;100.00
45403;BME280;47427;51.976;5.326;2023-03-31T04:39:17;99618.06;;;9.51;100.00
45403;BME280;47427;51.976;5.326;2023-03-31T04:42:46;99604.06;;;9.45;100.00
45403;BME280;47427;51.976;5.326;2023-03-31T04:46:09;99589.19;;;9.42;100.00
45403;BME280;47427;51.976;5.326;2023-03-31T04:49:32;99592.72;;;9.49;100.00
45403;BME280;47427;51.976;5.326;2023-03-31T04:52:53;99581.38;;;9.48;100.00
45403;BME280;47427;51.976;5.326;2023-03-31T04:56:16;99568.28;;;9.48;100.00
45403;BME280;47427;51.976;5.326;2023-03-31T04:59:39;99560.47;;;9.50;100.00
45403;BME280;47427;51.976;5.326;2023-03-31T05:03:01;99559.59;;;9.51;100.00
45403;BME280;47427;51.976;5.326;2023-03-31T05:06:23;99556.06;;;9.49;100.00
45403;BME280;47427;51.976;5.326;2023-03-31T05:10:06;99549.06;;;9.46;100.00
45403;BME280;47427;51.976;5.326;2023-03-31T05:13:47;99536.84;;;9.45;100.00
45403;BME280;47427;51.976;5.326;2023-03-31T05:17:10;99533.38;;;9.49;100.00
45403;BME280;47427;51.976;5.326;2023-03-31T05:20:33;99517.59;;;9.42;100.00
45403;BME280;47427;51.976;5.326;2023-03-31T05:23:56;99511.53;;;9.46;100.00
45403;BME280;47427;51.976;5.326;2023-03-31T05:27:18;99510.78;;;9.54;100.00
45403;BME280;47427;51.976;5.326;2023-03-31T05:30:43;99502.81;;;9.45;100.00
45403;BME280;47427;51.976;5.326;2023-03-31T05:34:05;99504.56;;;9.45;100.00
45403;BME280;47427;51.976;5.326;2023-03-31T05:37:27;99476.56;;;9.36;100.00
45403;BME280;47427;51.976;5.326;2023-03-31T05:40:50;99477.47;;;9.41;100.00
45403;BME280;47427;51.976;5.326;2023-03-31T05:44:12;99495.97;;;9.60;100.00
45403;BME280;47427;51.976;5.326;2023-03-31T05:47:35;99499.47;;;9.60;100.00
45403;BME280;47427;51.976;5.326;2023-03-31T05:50:59;99488.09;;;9.58;100.00
45403;BME280;47427;51.976;5.326;2023-03-31T05:54:21;99470.53;;;9.49;100.00
45403;BME280;47427;51.976;5.326;2023-03-31T05:57:44;99482.03;;;9.67;100.00
45403;BME280;47427;51.976;5.326;2023-03-31T06:01:13;99475.94;;;9.68;100.00
45403;BME280;47427;51.976;5.326;2023-03-31T06:04:39;99462.00;;;9.70;100.00
45403;BME280;47427;51.976;5.326;2023-03-31T06:08:01;99466.38;;;9.74;100.00
45403;BME280;47427;51.976;5.326;2023-03-31T06:11:24;99460.34;;;9.80;100.00
45403;BME280;47427;51.976;5.326;2023-03-31T06:14:46;99461.25;;;9.88;100.00
45403;BME280;47427;51.976;5.326;2023-03-31T06:18:09;99446.41;;;9.89;100.00
45403;BME280;47427;51.976;5.326;2023-03-31T06:21:31;99442.94;;;9.93;100.00
45403;BME280;47427;51.976;5.326;2023-03-31T06:24:54;99435.94;;;9.90;100.00
45403;BME280;47427;51.976;5.326;2023-03-31T06:28:17;99439.41;;;9.89;100.00
45403;BME280;47427;51.976;5.326;2023-03-31T06:31:39;99428.03;;;9.84;100.00
45403;BME280;47427;51.976;5.326;2023-03-31T06:35:01;99434.03;;;9.65;100.00
45403;BME280;47427;51.976;5.326;2023-03-31T06:38:24;99416.47;;;9.53;100.00
45403;BME280;47427;51.976;5.326;2023-03-31T06:41:46;99424.34;;;9.56;100.00
45403;BME280;47427;51.976;5.326;2023-03-31T06:45:18;99420.78;;;9.46;100.00
45403;BME280;47427;51.976;5.326;2023-03-31T06:48:39;99426.06;;;9.51;100.00
45403;BME280;47427;51.976;5.326;2023-03-31T06:52:02;99419.13;;;9.56;100.00
45403;BME280;47427;51.976;5.326;2023-03-31T06:55:25;99399.91;;;9.54;100.00
45403;BME280;47427;51.976;5.326;2023-03-31T06:58:47;99414.78;;;9.61;100.00
45403;BME280;47427;51.976;5.326;2023-03-31T07:02:10;99407.75;;;9.54;100.00
45403;BME280;47427;51.976;5.326;2023-03-31T07:05:32;99409.59;;;9.69;100.00
45403;BME280;47427;51.976;5.326;2023-03-31T07:08:55;99408.72;;;9.65;100.00
45403;BME280;47427;51.976;5.326;2023-03-31T07:12:18;99403.47;;;9.64;100.00
45403;BME280;47427;51.976;5.326;2023-03-31T07:15:41;99402.56;;;9.62;100.00
45403;BME280;47427;51.976;5.326;2023-03-31T07:19:06;99407.84;;;9.69;100.00
45403;BME280;47427;51.976;5.326;2023-03-31T07:22:29;99399.13;;;9.67;100.00
45403;BME280;47427;51.976;5.326;2023-03-31T07:25:51;99406.13;;;9.71;100.00
45403;BME280;47427;51.976;5.326;2023-03-31T07:29:13;99410.41;;;9.62;100.00
45403;BME280;47427;51.976;5.326;2023-03-31T07:32:35;99407.81;;;9.60;100.00
45403;BME280;47427;51.976;5.326;2023-03-31T07:36:20;99404.38;;;9.72;100.00
45403;BME280;47427;51.976;5.326;2023-03-31T07:39:41;99387.00;;;9.80;100.00
45403;BME280;47427;51.976;5.326;2023-03-31T07:43:03;99391.31;;;9.73;100.00
45403;BME280;47427;51.976;5.326;2023-03-31T07:46:28;99380.81;;;9.72;100.00
45403;BME280;47427;51.976;5.326;2023-03-31T07:49:50;99383.47;;;9.75;100.00
45403;BME280;47427;51.976;5.326;2023-03-31T07:53:12;99382.59;;;9.76;100.00
45403;BME280;47427;51.976;5.326;2023-03-31T07:56:36;99369.47;;;9.73;100.00
45403;BME280;47427;51.976;5.326;2023-03-31T07:59:58;99373.94;;;9.88;100.00
45403;BME280;47427;51.976;5.326;2023-03-31T08:03:20;99374.84;;;9.96;100.00
45403;BME280;47427;51.976;5.326;2023-03-31T08:06:43;99366.00;;;9.79;100.00
45403;BME280;47427;51.976;5.326;2023-03-31T08:10:07;99359.94;;;9.87;100.00
45403;BME280;47427;51.976;5.326;2023-03-31T08:13:30;99346.78;;;9.76;100.00
45403;BME280;47427;51.976;5.326;2023-03-31T08:16:52;99366.88;;;9.79;100.00
45403;BME280;47427;51.976;5.326;2023-03-31T08:20:16;99326.81;;;9.95;100.00
45403;BME280;47427;51.976;5.326;2023-03-31T08:23:39;99341.72;;;10.09;100.00
45403;BME280;47427;51.976;5.326;2023-03-31T08:27:00;99343.50;;;10.22;100.00
45403;BME280;47427;51.976;5.326;2023-03-31T08:30:23;99321.72;;;10.40;100.00
45403;BME280;47427;51.976;5.326;2023-03-31T08:33:46;99335.78;;;10.67;100.00
45403;BME280;47427;51.976;5.326;2023-03-31T08:37:09;99341.00;;;10.73;100.00
45403;BME280;47427;51.976;5.326;2023-03-31T08:40:32;99340.16;;;10.72;100.00
45403;BME280;47427;51.976;5.326;2023-03-31T08:43:55;99329.66;;;10.84;100.00
45403;BME280;47427;51.976;5.326;2023-03-31T08:47:22;99329.66;;;11.14;100.00
45403;BME280;47427;51.976;5.326;2023-03-31T08:50:51;99327.03;;;11.27;100.00
45403;BME280;47427;51.976;5.326;2023-03-31T08:54:32;99312.16;;;11.22;100.00
45403;BME280;47427;51.976;5.326;2023-03-31T08:58:14;99355.88;;;11.41;100.00
45403;BME280;47427;51.976;5.326;2023-03-31T09:01:41;99317.34;;;11.51;100.00
45403;BME280;47427;51.976;5.326;2023-03-31T09:08:47;99307.63;;;11.91;100.00
45403;BME280;47427;51.976;5.326;2023-03-31T09:13:06;99312.81;;;12.08;100.00
45403;BME280;47427;51.976;5.326;2023-03-31T09:16:58;99292.28;;;12.66;100.00
45403;BME280;47427;51.976;5.326;2023-03-31T09:20:32;99306.56;;;13.45;100.00
45403;BME280;47427;51.976;5.326;2023-03-31T09:27:34;99288.50;;;13.00;100.00
45403;BME280;47427;51.976;5.326;2023-03-31T09:30:59;99283.72;;;12.38;100.00
45403;BME280;47427;51.976;5.326;2023-03-31T09:34:33;99282.81;;;12.40;100.00
45403;BME280;47427;51.976;5.326;2023-03-31T09:37:54;99289.00;;;12.33;100.00
45403;BME280;47427;51.976;5.326;2023-03-31T09:41:19;99283.69;;;12.48;100.00
45403;BME280;47427;51.976;5.326;2023-03-31T09:44:45;99273.03;;;12.62;100.00
45403;BME280;47427;51.976;5.326;2023-03-31T09:48:22;99286.06;;;12.77;100.00
45403;BME280;47427;51.976;5.326;2023-03-31T09:52:02;99278.22;;;12.73;100.00
45403;BME280;47427;51.976;5.326;2023-03-31T09:55:52;99285.66;;;13.23;100.00
45403;BME280;47427;51.976;5.326;2023-03-31T09:59:49;99283.63;;;13.55;100.00
45403;BME280;47427;51.976;5.326;2023-03-31T10:03:06;99263.03;;;14.51;100.00
45403;BME280;47427;51.976;5.326;2023-03-31T10:06:28;99291.22;;;15.05;100.00
45403;BME280;47427;51.976;5.326;2023-03-31T10:09:52;99273.03;;;15.37;100.00
45403;BME280;47427;51.976;5.326;2023-03-31T10:13:20;99272.97;;;15.39;100.00
45403;BME280;47427;51.976;5.326;2023-03-31T10:16:55;99260.13;;;16.87;100.00
45403;BME280;47427;51.976;5.326;2023-03-31T10:23:55;99267.97;;;15.72;100.00
45403;BME280;47427;51.976;5.326;2023-03-31T10:27:24;99264.56;;;15.65;100.00
45403;BME280;47427;51.976;5.326;2023-03-31T10:30:56;99238.47;;;15.92;100.00
45403;BME280;47427;51.976;5.326;2023-03-31T10:34:22;99233.66;;;15.67;100.00
45403;BME280;47427;51.976;5.326;2023-03-31T10:37:48;99237.47;;;15.07;100.00
45403;BME280;47427;51.976;5.326;2023-03-31T10:41:18;99234.81;;;14.56;100.00
45403;BME280;47427;51.976;5.326;2023-03-31T10:44:41;99229.22;;;14.17;100.00
45403;BME280;47427;51.976;5.326;2023-03-31T10:48:05;99243.69;;;13.87;100.00
45403;BME280;47427;51.976;5.326;2023-03-31T10:51:57;99228.53;;;13.33;100.00
45403;BME280;47427;51.976;5.326;2023-03-31T10:55:25;99239.19;;;13.16;100.00
45403;BME280;47427;51.976;5.326;2023-03-31T11:06:38;99226.84;;;13.23;100.00
45403;BME280;47427;51.976;5.326;2023-03-31T11:25:26;99234.16;;;11.62;100.00
45403;BME280;47427;51.976;5.326;2023-03-31T11:47:15;99206.22;;;11.38;100.00
45403;BME280;47427;51.976;5.326;2023-03-31T11:50:41;99178.16;;;11.53;100.00
45403;BME280;47427;51.976;5.326;2023-03-31T11:54:07;99192.28;;;11.22;100.00
45403;BME280;47427;51.976;5.326;2023-03-31T11:57:35;99194.00;;;11.23;100.00
45403;BME280;47427;51.976;5.326;2023-03-31T12:01:24;99196.47;;;11.73;100.00
45403;BME280;47427;51.976;5.326;2023-03-31T12:04:53;99188.53;;;11.80;100.00
45403;BME280;47427;51.976;5.326;2023-03-31T12:08:36;99199.22;;;11.37;100.00
45403;BME280;47427;51.976;5.326;2023-03-31T12:12:11;99189.56;;;11.50;100.00
45403;BME280;47427;51.976;5.326;2023-03-31T12:15:41;99181.69;;;11.47;100.00
45403;BME280;47427;51.976;5.326;2023-03-31T12:19:29;99185.28;;;11.18;100.00
45403;BME280;47427;51.976;5.326;2023-03-31T12:22:54;99164.28;;;11.15;100.00
45403;BME280;47427;51.976;5.326;2023-03-31T12:30:29;99173.81;;;11.44;100.00
45403;BME280;47427;51.976;5.326;2023-03-31T12:34:06;99178.16;;;11.53;100.00
45403;BME280;47427;51.976;5.326;2023-03-31T12:37:40;99167.97;;;12.42;100.00
45403;BME280;47427;51.976;5.326;2023-03-31T12:52:25;99167.81;;;12.57;100.00
45403;BME280;47427;51.976;5.326;2023-03-31T12:55:56;99142.28;;;12.70;100.00
45403;BME280;47427;51.976;5.326;2023-03-31T12:59:35;99135.56;;;13.22;100.00
45403;BME280;47427;51.976;5.326;2023-03-31T13:03:35;99123.31;;;13.86;100.00
45403;BME280;47427;51.976;5.326;2023-03-31T13:06:58;99119.69;;;13.31;100.00
45403;BME280;47427;51.976;5.326;2023-03-31T13:10:27;99111.56;;;12.72;100.00
45403;BME280;47427;51.976;5.326;2023-03-31T13:17:36;99115.59;;;13.04;100.00
45403;BME280;47427;51.976;5.326;2023-03-31T13:21:02;99108.53;;;13.09;100.00
45403;BME280;47427;51.976;5.326;2023-03-31T13:24:29;99117.53;;;12.88;100.00
45403;BME280;47427;51.976;5.326;2023-03-31T13:27:52;99110.09;;;12.44;100.00
45403;BME280;47427;51.976;5.326;2023-03-31T13:31:14;99112.22;;;12.00;100.00
45403;BME280;47427;51.976;5.326;2023-03-31T13:58:13;99093.97;;;11.74;100.00
45403;BME280;47427;51.976;5.326;2023-03-31T14:06:01;99092.28;;;11.65;100.00
45403;BME280;47427;51.976;5.326;2023-03-31T14:09:34;99086.19;;;11.54;100.00
45403;BME280;47427;51.976;5.326;2023-03-31T14:13:18;99082.81;;;11.40;100.00
45403;BME280;47427;51.976;5.326;2023-03-31T14:17:03;99084.69;;;11.13;100.00
45403;BME280;47427;51.976;5.326;2023-03-31T14:20:47;99085.63;;;10.91;100.00
45403;BME280;47427;51.976;5.326;2023-03-31T14:24:21;99095.34;;;10.69;100.00
45403;BME280;47427;51.976;5.326;2023-03-31T14:35:56;99078.56;;;11.14;100.00
45403;BME280;47427;51.976;5.326;2023-03-31T14:39:21;99073.19;;;11.37;100.00
45403;BME280;47427;51.976;5.326;2023-03-31T14:42:43;99074.88;;;11.46;100.00
45403;BME280;47427;51.976;5.326;2023-03-31T14:46:09;99079.28;;;11.39;100.00
45403;BME280;47427;51.976;5.326;2023-03-31T14:49:37;99065.28;;;11.40;100.00
45403;BME280;47427;51.976;5.326;2023-03-31T14:52:59;99065.31;;;11.37;100.00
45403;BME280;47427;51.976;5.326;2023-03-31T14:56:32;99056.53;;;11.41;100.00
45403;BME280;47427;51.976;5.326;2023-03-31T14:59:57;99061.88;;;11.27;100.00
45403;BME280;47427;51.976;5.326;2023-03-31T15:03:19;99061.03;;;11.18;100.00
45403;BME280;47427;51.976;5.326;2023-03-31T15:06:46;99061.06;;;11.09;100.00
45403;BME280;47427;51.976;5.326;2023-03-31T15:10:19;99069.84;;;11.04;100.00
45403;BME280;47427;51.976;5.326;2023-03-31T15:13:47;99062.88;;;11.02;100.00
45403;BME280;47427;51.976;5.326;2023-03-31T15:17:28;99051.53;;;10.92;100.00
45403;BME280;47427;51.976;5.326;2023-03-31T15:20:49;99049.81;;;10.85;100.00
45403;BME280;47427;51.976;5.326;2023-03-31T15:24:13;99045.47;;;10.75;100.00
45403;BME280;47427;51.976;5.326;2023-03-31T15:27:39;99031.53;;;10.60;100.00
45403;BME280;47427;51.976;5.326;2023-03-31T15:31:05;99050.78;;;10.56;100.00
45403;BME280;47427;51.976;5.326;2023-03-31T15:34:32;99039.44;;;10.42;100.00
45403;BME280;47427;51.976;5.326;2023-03-31T15:37:57;99052.59;;;10.36;100.00
45403;BME280;47427;51.976;5.326;2023-03-31T15:41:21;99042.06;;;10.51;100.00
45403;BME280;47427;51.976;5.326;2023-03-31T15:45:48;99044.69;;;10.56;100.00
45403;BME280;47427;51.976;5.326;2023-03-31T15:48:49;99049.06;;;10.46;100.00
45403;BME280;47427;51.976;5.326;2023-03-31T15:52:52;99047.31;;;10.33;100.00
45403;BME280;47427;51.976;5.326;2023-03-31T15:56:44;99034.22;;;10.19;100.00
45403;BME280;47427;51.976;5.326;2023-03-31T16:03:54;99049.06;;;10.12;100.00
45403;BME280;47427;51.976;5.326;2023-03-31T16:07:31;99038.59;;;9.92;100.00
45403;BME280;47427;51.976;5.326;2023-03-31T16:11:03;99028.13;;;9.89;100.00
45403;BME280;47427;51.976;5.326;2023-03-31T16:14:41;99042.97;;;9.84;100.00
45403;BME280;47427;51.976;5.326;2023-03-31T16:18:35;99039.50;;;9.81;100.00
45403;BME280;47427;51.976;5.326;2023-03-31T16:22:01;99044.72;;;9.87;100.00
45403;BME280;47427;51.976;5.326;2023-03-31T16:25:28;99030.75;;;9.89;100.00
45403;BME280;47427;51.976;5.326;2023-03-31T16:28:54;99026.41;;;9.77;100.00
45403;BME280;47427;51.976;5.326;2023-03-31T16:32:18;99027.28;;;9.83;100.00
45403;BME280;47427;51.976;5.326;2023-03-31T16:35:45;99022.91;;;9.82;100.00
45403;BME280;47427;51.976;5.326;2023-03-31T16:39:12;99016.78;;;9.87;100.00
45403;BME280;47427;51.976;5.326;2023-03-31T16:42:33;99012.41;;;10.00;100.00
45403;BME280;47427;51.976;5.326;2023-03-31T16:45:59;99007.16;;;10.09;100.00
45403;BME280;47427;51.976;5.326;2023-03-31T16:49:23;99009.81;;;10.08;100.00
45403;BME280;47427;51.976;5.326;2023-03-31T16:52:44;99007.16;;;9.92;100.00
45403;BME280;47427;51.976;5.326;2023-03-31T16:56:09;99001.09;;;9.86;100.00
45403;BME280;47427;51.976;5.326;2023-03-31T16:59:34;99008.94;;;9.76;100.00
45403;BME280;47427;51.976;5.326;2023-03-31T17:02:57;99005.47;;;9.73;100.00
45403;BME280;47427;51.976;5.326;2023-03-31T17:06:20;99006.31;;;9.61;100.00
45403;BME280;47427;51.976;5.326;2023-03-31T17:09:42;98997.56;;;9.51;100.00
45403;BME280;47427;51.976;5.326;2023-03-31T17:13:05;98995.84;;;9.53;100.00
45403;BME280;47427;51.976;5.326;2023-03-31T17:16:48;98995.84;;;9.55;100.00
45403;BME280;47427;51.976;5.326;2023-03-31T17:20:10;98994.97;;;9.70;100.00
45403;BME280;47427;51.976;5.326;2023-03-31T17:23:33;99001.06;;;9.53;100.00
45403;BME280;47427;51.976;5.326;2023-03-31T17:26:56;98996.72;;;9.66;100.00
45403;BME280;47427;51.976;5.326;2023-03-31T17:30:19;98997.59;;;9.56;100.00
45403;BME280;47427;51.976;5.326;2023-03-31T17:33:42;98994.97;;;9.58;100.00
45403;BME280;47427;51.976;5.326;2023-03-31T17:37:03;98986.25;;;9.52;100.00
45403;BME280;47427;51.976;5.326;2023-03-31T17:40:25;98998.47;;;9.55;100.00
45403;BME280;47427;51.976;5.326;2023-03-31T17:43:48;98997.56;;;9.51;100.00
45403;BME280;47427;51.976;5.326;2023-03-31T17:47:10;99001.97;;;9.52;100.00
45403;BME280;47427;51.976;5.326;2023-03-31T17:50:33;98998.47;;;9.55;100.00
45403;BME280;47427;51.976;5.326;2023-03-31T17:53:55;98994.06;;;9.42;100.00
45403;BME280;47427;51.976;5.326;2023-03-31T17:57:17;98990.59;;;9.44;100.00
45403;BME280;47427;51.976;5.326;2023-03-31T18:00:40;98992.31;;;9.39;100.00
45403;BME280;47427;51.976;5.326;2023-03-31T18:04:02;98999.31;;;9.43;100.00
45403;BME280;47427;51.976;5.326;2023-03-31T18:07:25;99013.28;;;9.42;100.00
45403;BME280;47427;51.976;5.326;2023-03-31T18:10:48;98999.31;;;9.42;100.00
45403;BME280;47427;51.976;5.326;2023-03-31T18:14:10;98998.44;;;9.41;100.00
45403;BME280;47427;51.976;5.326;2023-03-31T18:17:33;98996.69;;;9.42;100.00
45403;BME280;47427;51.976;5.326;2023-03-31T18:20:56;98998.47;;;9.40;100.00
45403;BME280;47427;51.976;5.326;2023-03-31T18:24:18;98995.84;;;9.40;100.00
45403;BME280;47427;51.976;5.326;2023-03-31T18:27:41;98996.72;;;9.45;100.00
45403;BME280;47427;51.976;5.326;2023-03-31T18:31:04;98998.47;;;9.43;100.00
45403;BME280;47427;51.976;5.326;2023-03-31T18:34:28;98992.31;;;9.39;100.00
45403;BME280;47427;51.976;5.326;2023-03-31T18:37:50;98995.81;;;9.41;100.00
45403;BME280;47427;51.976;5.326;2023-03-31T18:41:15;99000.19;;;9.35;100.00
45403;BME280;47427;51.976;5.326;2023-03-31T18:44:39;98990.59;;;9.33;100.00
45403;BME280;47427;51.976;5.326;2023-03-31T18:48:01;98990.59;;;9.35;100.00
45403;BME280;47427;51.976;5.326;2023-03-31T18:51:23;98996.72;;;9.40;100.00
45403;BME280;47427;51.976;5.326;2023-03-31T18:55:05;98987.09;;;9.41;100.00
45403;BME280;47427;51.976;5.326;2023-03-31T18:58:28;98990.59;;;9.41;100.00
45403;BME280;47427;51.976;5.326;2023-03-31T19:01:51;98992.34;;;9.45;100.00
45403;BME280;47427;51.976;5.326;2023-03-31T19:05:14;98990.59;;;9.38;100.00
45403;BME280;47427;51.976;5.326;2023-03-31T19:08:36;98987.09;;;9.36;100.00
45403;BME280;47427;51.976;5.326;2023-03-31T19:11:59;98990.59;;;9.32;100.00
45403;BME280;47427;51.976;5.326;2023-03-31T19:15:22;98988.84;;;9.28;100.00
45403;BME280;47427;51.976;5.326;2023-03-31T19:18:44;98984.50;;;9.30;100.00
45403;BME280;47427;51.976;5.326;2023-03-31T19:22:08;98987.97;;;9.35;100.00
45403;BME280;47427;51.976;5.326;2023-03-31T19:25:53;98988.88;;;9.37;100.00
45403;BME280;47427;51.976;5.326;2023-03-31T19:29:16;98998.44;;;9.27;100.00
45403;BME280;47427;51.976;5.326;2023-03-31T19:32:37;98991.47;;;9.25;100.00
45403;BME280;47427;51.976;5.326;2023-03-31T19:36:00;98987.97;;;9.27;100.00
45403;BME280;47427;51.976;5.326;2023-03-31T19:39:23;98976.63;;;9.27;100.00
45403;BME280;47427;51.976;5.326;2023-03-31T19:42:48;98983.59;;;9.23;100.00
45403;BME280;47427;51.976;5.326;2023-03-31T19:46:10;98981.84;;;9.25;100.00
45403;BME280;47427;51.976;5.326;2023-03-31T19:49:33;98987.09;;;9.27;100.00
45403;BME280;47427;51.976;5.326;2023-03-31T19:52:54;98977.50;;;9.30;100.00
45403;BME280;47427;51.976;5.326;2023-03-31T19:56:17;98974.00;;;9.28;100.00
45403;BME280;47427;51.976;5.326;2023-03-31T19:59:40;98974.88;;;9.24;100.00
45403;BME280;47427;51.976;5.326;2023-03-31T20:03:02;98980.09;;;9.23;100.00
45403;BME280;47427;51.976;5.326;2023-03-31T20:06:28;98975.75;;;9.25;100.00
45403;BME280;47427;51.976;5.326;2023-03-31T20:09:50;98972.25;;;9.23;100.00
45403;BME280;47427;51.976;5.326;2023-03-31T20:13:13;98981.84;;;9.18;100.00
45403;BME280;47427;51.976;5.326;2023-03-31T20:16:36;98964.41;;;9.18;100.00
45403;BME280;47427;51.976;5.326;2023-03-31T20:19:58;98959.16;;;9.18;100.00
45403;BME280;47427;51.976;5.326;2023-03-31T20:23:21;98966.16;;;9.21;100.00
45403;BME280;47427;51.976;5.326;2023-03-31T20:26:44;98957.41;;;9.19;100.00
45403;BME280;47427;51.976;5.326;2023-03-31T20:30:06;98947.84;;;9.19;100.00
45403;BME280;47427;51.976;5.326;2023-03-31T20:33:30;98953.94;;;9.20;100.00
45403;BME280;47427;51.976;5.326;2023-03-31T20:36:52;98946.09;;;9.15;100.00
45403;BME280;47427;51.976;5.326;2023-03-31T20:40:13;98946.09;;;9.18;100.00
45403;BME280;47427;51.976;5.326;2023-03-31T20:43:37;98953.09;;;9.19;100.00
45403;BME280;47427;51.976;5.326;2023-03-31T20:46:58;98946.94;;;9.19;100.00